createdAt,value
2022-09-30T00:01:14.275Z,10.60
2022-09-30T00:03:42.147Z,10.60
2022-09-30T00:06:10.987Z,10.60
2022-09-30T00:08:40.505Z,10.60
2022-09-30T00:11:10.747Z,10.60
2022-09-30T00:13:40.091Z,10.60
2022-09-30T00:16:10.083Z,10.60
2022-09-30T00:18:38.712Z,10.60
2022-09-30T00:21:08.304Z,10.50
2022-09-30T00:23:36.581Z,10.60
2022-09-30T00:26:09.442Z,10.60
2022-09-30T00:28:37.271Z,10.60
2022-09-30T00:31:07.855Z,10.60
2022-09-30T00:33:36.200Z,10.50
2022-09-30T00:36:04.603Z,10.60
2022-09-30T00:38:33.199Z,10.50
2022-09-30T00:41:02.646Z,10.50
2022-09-30T00:43:43.357Z,10.50
2022-09-30T00:46:20.119Z,10.50
2022-09-30T00:48:53.696Z,10.50
2022-09-30T00:51:28.449Z,10.50
2022-09-30T00:54:01.068Z,10.50
2022-09-30T00:56:32.795Z,10.50
2022-09-30T00:59:06.685Z,10.50
2022-09-30T01:01:35.991Z,10.50
2022-09-30T01:04:07.320Z,10.50
2022-09-30T01:06:35.137Z,10.40
2022-09-30T01:09:03.277Z,10.50
2022-09-30T01:11:31.562Z,10.50
2022-09-30T01:14:03.675Z,10.50
2022-09-30T01:16:57.061Z,10.50
2022-09-30T01:19:50.849Z,10.50
2022-09-30T01:22:27.991Z,10.50
2022-09-30T01:25:24.482Z,10.50
2022-09-30T01:28:24.055Z,10.50
2022-09-30T01:31:17.932Z,10.50
2022-09-30T01:33:52.955Z,10.50
2022-09-30T01:36:39.452Z,10.50
2022-09-30T01:39:31.386Z,10.50
2022-09-30T01:42:23.551Z,10.50
2022-09-30T01:45:18.779Z,10.60
2022-09-30T01:50:53.388Z,10.50
2022-09-30T01:53:26.009Z,10.60
2022-09-30T01:55:59.736Z,10.60
2022-09-30T01:58:34.102Z,10.60
2022-09-30T02:01:07.215Z,10.60
2022-09-30T02:03:39.773Z,10.60
2022-09-30T02:06:11.065Z,10.50
2022-09-30T02:08:42.348Z,10.60
2022-09-30T02:11:14.407Z,10.60
2022-09-30T02:13:46.636Z,10.60
2022-09-30T02:16:21.641Z,10.70
2022-09-30T02:18:55.342Z,10.60
2022-09-30T02:21:27.385Z,10.60
2022-09-30T02:24:00.941Z,10.60
2022-09-30T02:26:32.642Z,10.60
2022-09-30T02:29:05.002Z,10.60
2022-09-30T02:31:33.627Z,10.60
2022-09-30T02:34:07.474Z,10.60
2022-09-30T02:36:40.148Z,10.60
2022-09-30T02:39:11.506Z,10.60
2022-09-30T02:41:45.292Z,10.60
2022-09-30T02:44:13.706Z,10.60
2022-09-30T02:46:47.726Z,10.60
2022-09-30T02:49:24.141Z,10.60
2022-09-30T02:52:12.532Z,10.50
2022-09-30T02:54:49.912Z,10.60
2022-09-30T02:57:23.411Z,10.50
2022-09-30T02:59:53.601Z,10.50
2022-09-30T03:02:22.385Z,10.50
2022-09-30T03:04:52.015Z,10.50
2022-09-30T03:07:20.172Z,10.50
2022-09-30T03:09:48.039Z,10.40
2022-09-30T03:12:27.473Z,10.50
2022-09-30T03:15:12.680Z,10.40
2022-09-30T03:17:56.272Z,10.40
2022-09-30T03:20:38.611Z,10.40
2022-09-30T03:23:36.231Z,10.40
2022-09-30T03:26:15.657Z,10.40
2022-09-30T03:28:52.972Z,10.30
2022-09-30T03:31:28.089Z,10.40
2022-09-30T03:34:03.866Z,10.30
2022-09-30T03:36:39.551Z,10.30
2022-09-30T03:39:17.780Z,10.40
2022-09-30T03:41:49.515Z,10.40
2022-09-30T03:44:23.164Z,10.40
2022-09-30T03:46:55.342Z,10.40
2022-09-30T03:49:25.409Z,10.40
2022-09-30T03:51:58.685Z,10.40
2022-09-30T03:54:27.129Z,10.60
2022-09-30T03:56:54.959Z,10.40
2022-09-30T03:59:27.892Z,10.40
2022-09-30T04:01:57.006Z,10.40
2022-09-30T04:04:24.842Z,10.40
2022-09-30T04:06:54.016Z,10.40
2022-09-30T04:09:21.925Z,10.40
2022-09-30T04:11:49.966Z,10.40
2022-09-30T04:14:17.769Z,10.40
2022-09-30T04:16:45.590Z,10.40
2022-09-30T04:19:13.398Z,10.40
2022-09-30T04:21:41.219Z,10.40
2022-09-30T04:24:10.730Z,10.40
2022-09-30T04:26:38.545Z,10.40
2022-09-30T04:29:06.434Z,10.40
2022-09-30T04:31:34.278Z,10.40
2022-09-30T04:34:02.354Z,10.40
2022-09-30T04:36:30.216Z,10.40
2022-09-30T04:38:58.548Z,10.40
2022-09-30T04:41:27.714Z,10.40
2022-09-30T04:43:55.814Z,10.40
2022-09-30T04:46:23.808Z,10.40
2022-09-30T04:48:51.756Z,10.50
2022-09-30T04:51:21.238Z,10.40
2022-09-30T04:53:49.816Z,10.40
2022-09-30T04:56:18.309Z,10.40
2022-09-30T04:58:47.472Z,10.40
2022-09-30T05:01:16.797Z,10.30
2022-09-30T05:03:45.512Z,10.50
2022-09-30T05:06:14.173Z,10.40
2022-09-30T05:08:46.059Z,10.50
2022-09-30T05:11:18.466Z,10.40
2022-09-30T05:13:48.594Z,10.40
2022-09-30T05:16:17.703Z,10.40
2022-09-30T05:18:46.958Z,10.40
2022-09-30T05:21:16.088Z,10.40
2022-09-30T05:23:44.085Z,10.40
2022-09-30T05:26:12.762Z,10.40
2022-09-30T05:28:40.828Z,10.40
2022-09-30T05:31:10.224Z,10.40
2022-09-30T05:33:38.083Z,10.40
2022-09-30T05:36:07.749Z,10.40
2022-09-30T05:38:36.145Z,10.40
2022-09-30T05:41:08.610Z,10.40
2022-09-30T05:43:38.134Z,10.40
2022-09-30T05:46:06.311Z,10.40
2022-09-30T05:48:35.688Z,10.50
2022-09-30T05:51:03.893Z,10.40
2022-09-30T05:53:32.897Z,10.50
2022-09-30T05:56:00.750Z,10.50
2022-09-30T05:58:28.624Z,10.40
2022-09-30T06:00:57.258Z,10.40
2022-09-30T06:03:27.113Z,10.50
2022-09-30T06:05:58.274Z,10.50
2022-09-30T06:08:26.508Z,10.50
2022-09-30T06:10:54.693Z,10.50
2022-09-30T06:13:22.528Z,10.50
2022-09-30T06:15:57.509Z,10.50
2022-09-30T06:18:26.043Z,10.50
2022-09-30T06:20:54.682Z,10.50
2022-09-30T06:23:23.887Z,10.50
2022-09-30T06:25:51.857Z,10.50
2022-09-30T06:28:20.042Z,10.60
2022-09-30T06:30:48.230Z,10.50
2022-09-30T06:33:17.384Z,10.60
2022-09-30T06:35:47.358Z,10.60
2022-09-30T06:38:16.595Z,10.60
2022-09-30T06:40:49.527Z,10.60
2022-09-30T06:43:17.417Z,10.60
2022-09-30T06:45:47.266Z,10.70
2022-09-30T06:48:20.269Z,10.70
2022-09-30T06:51:01.510Z,10.70
2022-09-30T06:53:30.188Z,10.70
2022-09-30T06:55:59.594Z,10.80
2022-09-30T06:58:27.457Z,10.80
2022-09-30T07:00:58.768Z,10.80
2022-09-30T07:03:29.272Z,10.90
2022-09-30T07:05:58.551Z,10.90
2022-09-30T07:08:29.168Z,11.00
2022-09-30T07:10:57.417Z,11.00
2022-09-30T07:13:27.480Z,11.00
2022-09-30T07:15:56.639Z,11.00
2022-09-30T07:18:27.998Z,11.00
2022-09-30T07:20:57.422Z,11.10
2022-09-30T07:23:27.397Z,11.10
2022-09-30T07:25:57.754Z,11.10
2022-09-30T07:28:31.234Z,11.10
2022-09-30T07:31:27.484Z,11.10
2022-09-30T07:33:51.191Z,11.10
2022-09-30T07:36:20.221Z,11.10
2022-09-30T07:38:49.858Z,11.20
2022-09-30T07:41:21.840Z,11.20
2022-09-30T07:43:51.142Z,11.20
2022-09-30T07:46:25.017Z,11.20
2022-09-30T07:48:57.358Z,11.20
2022-09-30T07:51:27.074Z,11.30
2022-09-30T07:53:57.697Z,11.10
2022-09-30T07:56:26.534Z,11.30
2022-09-30T07:58:57.746Z,11.30
2022-09-30T08:01:25.710Z,11.40
2022-09-30T08:03:55.409Z,11.40
2022-09-30T08:06:23.861Z,11.40
2022-09-30T08:08:53.463Z,11.40
2022-09-30T08:11:21.595Z,11.20
2022-09-30T08:13:52.406Z,11.60
2022-09-30T08:16:22.746Z,11.40
2022-09-30T08:18:54.698Z,11.40
2022-09-30T08:21:22.998Z,11.40
2022-09-30T08:23:50.848Z,11.50
2022-09-30T08:26:18.841Z,11.50
2022-09-30T08:28:48.255Z,11.50
2022-09-30T08:31:18.414Z,11.60
2022-09-30T08:33:47.910Z,11.60
2022-09-30T08:36:17.220Z,11.60
2022-09-30T08:38:45.725Z,11.70
2022-09-30T08:41:24.202Z,11.70
2022-09-30T08:44:05.831Z,11.80
2022-09-30T08:46:42.735Z,11.80
2022-09-30T08:49:30.245Z,11.90
2022-09-30T08:52:00.614Z,11.90
2022-09-30T08:54:37.804Z,12.00
2022-09-30T08:57:08.912Z,12.00
2022-09-30T08:59:39.133Z,12.20
2022-09-30T09:02:18.206Z,12.10
2022-09-30T09:04:49.102Z,12.10
2022-09-30T09:07:30.681Z,12.10
2022-09-30T09:10:11.435Z,12.10
2022-09-30T09:12:47.938Z,12.10
2022-09-30T09:15:26.570Z,12.10
2022-09-30T09:18:23.266Z,12.10
2022-09-30T09:20:56.486Z,12.00
2022-09-30T09:23:24.961Z,12.10
2022-09-30T09:25:55.651Z,12.10
2022-09-30T09:28:33.789Z,12.10
2022-09-30T09:31:02.515Z,12.20
2022-09-30T09:33:32.389Z,12.10
2022-09-30T09:36:13.243Z,12.20
2022-09-30T09:38:57.895Z,12.20
2022-09-30T09:41:34.378Z,12.20
2022-09-30T09:44:06.678Z,12.20
2022-09-30T09:46:38.364Z,12.20
2022-09-30T09:49:32.909Z,12.20
2022-09-30T09:52:40.010Z,12.20
2022-09-30T09:55:11.245Z,12.20
2022-09-30T09:57:40.181Z,12.20
2022-09-30T10:00:27.709Z,12.30
2022-09-30T10:03:03.985Z,12.20
2022-09-30T10:05:39.376Z,12.30
2022-09-30T10:08:13.120Z,12.20
2022-09-30T10:10:49.346Z,12.30
2022-09-30T10:13:22.457Z,12.30
2022-09-30T10:15:52.517Z,12.30
2022-09-30T10:18:25.817Z,12.30
2022-09-30T10:20:57.445Z,12.40
2022-09-30T10:23:29.508Z,12.40
2022-09-30T10:26:01.812Z,12.40
2022-09-30T10:28:30.905Z,12.40
2022-09-30T10:31:14.312Z,12.40
2022-09-30T10:45:01.893Z,12.40
2022-09-30T10:47:36.596Z,12.50
2022-09-30T10:50:09.326Z,12.50
2022-09-30T10:52:40.466Z,12.40
2022-09-30T10:55:15.716Z,12.50
2022-09-30T10:57:45.812Z,12.40
2022-09-30T11:00:19.534Z,12.50
2022-09-30T11:02:58.982Z,12.40
2022-09-30T11:05:30.444Z,12.50
2022-09-30T11:08:04.138Z,12.60
2022-09-30T11:10:39.970Z,12.60
2022-09-30T11:13:14.603Z,12.60
2022-09-30T11:15:49.976Z,12.70
2022-09-30T11:18:26.793Z,12.70
2022-09-30T11:20:58.523Z,12.80
2022-09-30T11:23:31.892Z,12.80
2022-09-30T11:26:06.135Z,12.80
2022-09-30T11:28:47.761Z,12.80
2022-09-30T11:31:29.302Z,12.80
2022-09-30T11:34:15.813Z,12.80
2022-09-30T11:36:54.011Z,12.90
2022-09-30T11:39:49.375Z,12.90
2022-09-30T11:42:22.384Z,12.90
2022-09-30T11:45:01.204Z,12.80
2022-09-30T11:48:00.703Z,12.80
2022-09-30T11:50:49.036Z,12.70
2022-09-30T11:53:28.150Z,12.70
2022-09-30T11:56:16.911Z,12.70
2022-09-30T11:58:48.810Z,12.70
2022-09-30T12:01:22.443Z,12.70
2022-09-30T12:04:02.020Z,12.70
2022-09-30T12:06:35.564Z,12.70
2022-09-30T12:09:15.948Z,12.70
2022-09-30T12:11:51.634Z,12.80
2022-09-30T12:14:27.315Z,12.70
2022-09-30T12:16:57.723Z,12.80
2022-09-30T12:19:30.941Z,12.80
2022-09-30T12:22:06.466Z,12.90
2022-09-30T12:24:38.288Z,12.90
2022-09-30T12:27:13.817Z,12.90
2022-09-30T12:30:02.821Z,12.80
2022-09-30T12:32:58.427Z,12.90
2022-09-30T12:35:39.630Z,12.90
2022-09-30T12:38:27.046Z,13.00
2022-09-30T12:41:11.915Z,12.90
2022-09-30T12:44:17.634Z,13.00
2022-09-30T12:47:08.688Z,13.00
2022-09-30T12:49:40.348Z,13.10
2022-09-30T12:52:15.167Z,12.90
2022-09-30T12:54:50.839Z,13.00
2022-09-30T12:57:24.276Z,13.00
2022-09-30T12:59:55.665Z,13.30
2022-09-30T13:02:32.573Z,13.10
2022-09-30T13:05:46.898Z,13.20
2022-09-30T13:08:32.681Z,13.20
2022-09-30T13:11:07.873Z,13.20
2022-09-30T13:13:57.242Z,13.20
2022-09-30T13:16:58.373Z,13.10
2022-09-30T13:19:38.371Z,13.10
2022-09-30T13:22:55.154Z,13.10
2022-09-30T13:25:23.098Z,13.00
2022-09-30T13:35:50.609Z,12.90
2022-09-30T13:38:53.743Z,12.90
2022-09-30T13:41:24.739Z,12.90
2022-09-30T13:44:03.557Z,12.90
2022-09-30T13:46:36.727Z,12.90
2022-09-30T13:49:10.786Z,12.90
2022-09-30T13:51:41.693Z,12.90
2022-09-30T13:54:24.282Z,13.00
2022-09-30T13:56:54.155Z,13.00
2022-09-30T13:59:39.498Z,13.10
2022-09-30T14:02:39.589Z,13.20
2022-09-30T14:05:43.441Z,13.30
2022-09-30T14:08:41.526Z,13.40
2022-09-30T14:11:28.511Z,13.60
2022-09-30T14:14:14.517Z,13.80
2022-09-30T14:17:05.751Z,14.10
2022-09-30T14:20:02.820Z,14.60
2022-09-30T14:22:31.372Z,14.90
2022-09-30T14:24:59.523Z,15.00
2022-09-30T14:27:50.457Z,15.10
2022-09-30T14:30:21.322Z,15.00
2022-09-30T14:32:54.572Z,14.90
2022-09-30T14:35:25.130Z,14.80
2022-09-30T14:37:57.428Z,14.80
2022-09-30T14:40:26.113Z,14.80
2022-09-30T14:42:55.465Z,15.90
2022-09-30T14:45:27.274Z,15.90
2022-09-30T14:48:00.401Z,16.70
2022-09-30T14:50:32.109Z,17.40
2022-09-30T14:53:02.793Z,17.70
2022-09-30T14:55:33.470Z,17.60
2022-09-30T14:58:28.319Z,17.70
2022-09-30T15:01:06.489Z,17.80
2022-09-30T15:03:39.430Z,17.50
2022-09-30T15:06:19.375Z,17.00
2022-09-30T15:08:48.438Z,16.60
2022-09-30T15:11:21.230Z,16.20
2022-09-30T15:13:50.116Z,15.90
2022-09-30T15:16:26.832Z,15.60
2022-09-30T15:18:56.448Z,15.40
2022-09-30T15:21:27.908Z,15.20
2022-09-30T15:23:57.806Z,15.00
2022-09-30T15:26:27.586Z,14.80
2022-09-30T15:28:55.735Z,14.70
2022-09-30T15:31:27.477Z,14.50
2022-09-30T15:34:05.005Z,14.40
2022-09-30T15:36:34.141Z,14.30
2022-09-30T15:39:02.811Z,14.20
2022-09-30T15:41:30.815Z,14.20
2022-09-30T15:44:00.435Z,14.00
2022-09-30T15:46:31.777Z,14.00
2022-09-30T15:49:01.646Z,14.00
2022-09-30T15:51:40.011Z,14.10
2022-09-30T15:54:32.162Z,14.00
2022-09-30T15:57:16.362Z,14.00
2022-09-30T16:00:02.078Z,13.90
2022-09-30T16:02:31.499Z,13.90
2022-09-30T16:05:02.014Z,14.00
2022-09-30T16:07:32.926Z,13.60
2022-09-30T16:10:00.910Z,13.70
2022-09-30T16:12:33.598Z,13.70
2022-09-30T16:15:08.037Z,13.60
2022-09-30T16:17:38.593Z,13.60
2022-09-30T16:20:09.242Z,13.50
2022-09-30T16:22:51.604Z,13.50
2022-09-30T16:25:26.405Z,13.50
2022-09-30T16:27:57.592Z,13.40
2022-09-30T16:30:25.998Z,13.40
2022-09-30T16:32:58.097Z,13.40
2022-09-30T16:35:27.979Z,13.30
2022-09-30T16:38:01.820Z,13.30
2022-09-30T16:40:32.026Z,13.30
2022-09-30T16:43:01.313Z,13.30
2022-09-30T16:45:31.275Z,13.20
2022-09-30T16:48:01.462Z,13.30
2022-09-30T16:50:36.689Z,13.20
2022-09-30T16:53:05.894Z,13.20
2022-09-30T16:55:33.809Z,13.20
2022-09-30T16:58:01.681Z,13.20
2022-09-30T17:00:30.105Z,13.20
2022-09-30T17:02:58.453Z,13.20
2022-09-30T17:05:27.809Z,13.10
2022-09-30T17:07:57.128Z,13.10
2022-09-30T17:10:29.061Z,13.00
2022-09-30T17:12:57.962Z,13.10
2022-09-30T17:15:25.887Z,13.10
2022-09-30T17:17:53.929Z,13.10
2022-09-30T17:20:22.179Z,13.10
2022-09-30T17:22:50.477Z,13.10
2022-09-30T17:25:19.020Z,13.10
2022-09-30T17:27:50.340Z,13.00
2022-09-30T17:30:19.177Z,13.10
2022-09-30T17:32:47.082Z,13.00
2022-09-30T17:35:15.256Z,13.00
2022-09-30T17:37:46.278Z,13.00
2022-09-30T17:40:32.600Z,13.20
2022-09-30T17:43:13.967Z,13.00
2022-09-30T17:45:43.992Z,13.00
2022-09-30T17:48:13.465Z,13.10
2022-09-30T17:50:44.190Z,13.00
2022-09-30T17:53:14.102Z,13.00
2022-09-30T17:55:43.529Z,13.00
2022-09-30T17:58:12.674Z,12.90
2022-09-30T18:00:40.494Z,13.00
2022-09-30T18:03:08.768Z,12.90
2022-09-30T18:05:37.349Z,12.90
2022-09-30T18:08:06.123Z,12.90
2022-09-30T18:10:36.558Z,12.90
2022-09-30T18:13:04.378Z,12.90
2022-09-30T18:15:33.935Z,12.80
2022-09-30T18:18:01.748Z,12.90
2022-09-30T18:20:29.564Z,12.90
2022-09-30T18:22:57.363Z,12.90
2022-09-30T18:25:25.338Z,12.90
2022-09-30T18:27:57.403Z,12.90
2022-09-30T18:30:26.849Z,12.90
2022-09-30T18:32:57.041Z,12.90
2022-09-30T18:35:25.551Z,12.90
2022-09-30T18:37:54.015Z,12.90
2022-09-30T18:40:24.614Z,12.90
2022-09-30T18:42:55.492Z,12.90
2022-09-30T18:45:23.618Z,12.90
2022-09-30T18:47:57.093Z,12.80
2022-09-30T18:50:26.569Z,12.80
2022-09-30T18:52:54.653Z,12.90
2022-09-30T18:55:22.922Z,12.80
2022-09-30T18:57:54.055Z,13.10
2022-09-30T19:00:21.905Z,12.80
2022-09-30T19:02:49.746Z,12.90
2022-09-30T19:05:19.227Z,12.80
2022-09-30T19:07:47.025Z,12.80
2022-09-30T19:10:15.651Z,12.80
2022-09-30T19:12:44.482Z,12.80
2022-09-30T19:15:15.966Z,12.80
2022-09-30T19:17:44.381Z,12.80
2022-09-30T19:20:13.954Z,12.70
2022-09-30T19:22:43.181Z,12.80
2022-09-30T19:25:12.638Z,12.80
2022-09-30T19:27:42.237Z,12.80
2022-09-30T19:30:12.225Z,12.90
2022-09-30T19:32:40.389Z,12.80
2022-09-30T19:35:44.218Z,12.80
2022-09-30T19:38:13.976Z,12.80
2022-09-30T19:40:42.157Z,12.70
2022-09-30T19:43:10.037Z,12.80
2022-09-30T19:45:37.922Z,12.70
2022-09-30T19:48:05.777Z,12.70
2022-09-30T19:50:36.734Z,12.70
2022-09-30T19:53:04.561Z,12.80
2022-09-30T19:55:46.811Z,12.80
2022-09-30T19:58:17.188Z,12.70
2022-09-30T20:00:47.023Z,12.70
2022-09-30T20:03:15.231Z,12.70
2022-09-30T20:05:43.875Z,12.70
2022-09-30T20:08:11.683Z,12.70
2022-09-30T20:10:40.829Z,12.70
2022-09-30T20:13:08.630Z,12.70
2022-09-30T20:15:53.132Z,12.70
2022-09-30T20:18:21.586Z,12.70
2022-09-30T20:21:25.487Z,12.70
2022-09-30T20:23:54.651Z,12.90
2022-09-30T20:26:23.836Z,12.70
2022-09-30T20:28:56.244Z,12.70
2022-09-30T20:31:24.689Z,12.70
2022-09-30T20:33:55.420Z,12.70
2022-09-30T20:36:23.311Z,12.70
2022-09-30T20:38:51.596Z,12.70
2022-09-30T20:41:19.507Z,12.70
2022-09-30T20:43:52.903Z,12.70
2022-09-30T20:46:21.658Z,12.70
2022-09-30T20:48:50.295Z,12.70
2022-09-30T20:51:19.414Z,12.70
2022-09-30T20:53:51.736Z,12.70
2022-09-30T20:56:19.840Z,12.60
2022-09-30T20:58:47.738Z,12.70
2022-09-30T21:01:19.324Z,12.60
2022-09-30T21:03:50.384Z,12.60
2022-09-30T21:06:20.469Z,12.60
2022-09-30T21:08:50.774Z,12.60
2022-09-30T21:11:19.501Z,12.70
2022-09-30T21:13:48.944Z,12.70
2022-09-30T21:16:19.717Z,12.60
2022-09-30T21:18:48.276Z,12.60
2022-09-30T21:21:41.743Z,12.60
2022-09-30T21:24:09.744Z,12.60
2022-09-30T21:29:53.358Z,12.60
2022-09-30T21:32:28.875Z,12.60
2022-09-30T21:34:57.926Z,12.60
2022-09-30T21:37:26.002Z,12.60
2022-09-30T21:39:53.872Z,12.60
2022-09-30T21:42:22.365Z,12.60
2022-09-30T21:44:50.245Z,12.60
2022-09-30T21:47:18.434Z,12.60
2022-09-30T21:49:47.581Z,12.60
2022-09-30T21:52:15.441Z,12.60
2022-09-30T21:54:43.256Z,12.60
2022-09-30T21:57:11.134Z,12.60
2022-09-30T21:59:46.353Z,12.60
2022-09-30T22:02:16.473Z,12.60
2022-09-30T22:04:44.508Z,12.60
2022-09-30T22:07:15.377Z,12.50
2022-09-30T22:09:43.463Z,12.50
2022-09-30T22:12:11.328Z,12.50
2022-09-30T22:14:39.210Z,12.70
2022-09-30T22:17:09.131Z,12.50
2022-09-30T22:19:38.457Z,12.50
2022-09-30T22:22:06.410Z,12.40
2022-09-30T22:24:36.834Z,13.00
2022-09-30T22:27:06.142Z,12.40
2022-09-30T22:29:34.167Z,12.40
2022-09-30T22:32:02.834Z,12.30
2022-09-30T22:34:48.323Z,12.30
2022-09-30T22:37:33.901Z,12.30
2022-09-30T22:40:03.282Z,12.30
2022-09-30T22:42:31.493Z,12.20
2022-09-30T22:44:59.365Z,12.20
2022-09-30T22:47:27.273Z,12.20
2022-09-30T22:49:55.115Z,12.20
2022-09-30T22:52:22.945Z,12.20
2022-09-30T22:54:50.732Z,12.10
2022-09-30T22:57:19.890Z,12.10
2022-09-30T22:59:47.693Z,12.10
2022-09-30T23:02:15.986Z,12.00
2022-09-30T23:04:44.351Z,12.00
2022-09-30T23:07:12.250Z,12.00
2022-09-30T23:09:40.072Z,12.00
2022-09-30T23:12:07.944Z,12.10
2022-09-30T23:14:38.482Z,12.00
2022-09-30T23:17:06.293Z,12.00
2022-09-30T23:19:34.097Z,12.00
2022-09-30T23:22:01.881Z,12.00
2022-09-30T23:24:30.302Z,12.00
2022-09-30T23:26:58.282Z,12.00
2022-09-30T23:29:26.102Z,12.00
2022-09-30T23:32:23.153Z,12.10
2022-09-30T23:34:50.972Z,12.00
2022-09-30T23:37:19.180Z,12.10
2022-09-30T23:39:47.045Z,12.10
2022-09-30T23:42:14.870Z,12.10
2022-09-30T23:44:42.730Z,12.10
2022-09-30T23:47:19.320Z,12.10
2022-09-30T23:49:48.726Z,12.10
2022-09-30T23:52:17.408Z,12.10
2022-09-30T23:54:45.325Z,12.20
2022-09-30T23:57:13.229Z,12.10
2022-09-30T23:59:41.074Z,12.20
